createdAt,value
2019-02-17T00:01:29.276Z,5.40
2019-02-17T00:03:55.495Z,5.40
2019-02-17T00:06:21.677Z,5.40
2019-02-17T00:08:47.866Z,5.30
2019-02-17T00:11:14.031Z,5.30
2019-02-17T00:13:40.298Z,5.30
2019-02-17T00:16:06.590Z,5.30
2019-02-17T00:18:32.773Z,5.30
2019-02-17T00:21:01.774Z,5.30
2019-02-17T00:23:27.956Z,5.30
2019-02-17T00:25:54.120Z,5.30
2019-02-17T00:28:20.338Z,5.20
2019-02-17T00:30:46.601Z,5.20
2019-02-17T00:33:12.778Z,5.20
2019-02-17T00:35:39.128Z,5.10
2019-02-17T00:38:05.820Z,5.20
2019-02-17T00:40:31.999Z,5.10
2019-02-17T00:43:04.243Z,5.10
2019-02-17T00:45:30.513Z,5.10
2019-02-17T00:47:56.684Z,5.00
2019-02-17T00:50:22.925Z,5.00
2019-02-17T00:52:49.176Z,5.00
2019-02-17T00:55:15.375Z,4.90
2019-02-17T00:57:41.556Z,4.90
2019-02-17T01:00:12.301Z,5.00
2019-02-17T01:02:41.087Z,5.00
2019-02-17T01:05:07.476Z,4.90
2019-02-17T01:07:33.661Z,4.90
2019-02-17T01:09:59.839Z,4.90
2019-02-17T01:12:26.018Z,4.80
2019-02-17T01:14:52.191Z,4.70
2019-02-17T01:17:18.485Z,4.70
2019-02-17T01:19:44.637Z,4.70
2019-02-17T01:22:10.814Z,4.70
2019-02-17T01:24:36.973Z,4.80
2019-02-17T01:27:03.201Z,4.70
2019-02-17T01:29:29.425Z,4.70
2019-02-17T01:31:55.606Z,4.70
2019-02-17T01:34:21.750Z,4.70
2019-02-17T01:36:47.927Z,4.70
2019-02-17T01:39:32.299Z,4.70
2019-02-17T01:42:01.054Z,4.60
2019-02-17T01:44:27.229Z,4.60
2019-02-17T01:46:53.420Z,4.50
2019-02-17T01:49:19.586Z,4.50
2019-02-17T01:51:45.754Z,4.50
2019-02-17T01:54:11.938Z,4.50
2019-02-17T01:56:38.115Z,4.50
2019-02-17T01:59:04.436Z,4.50
2019-02-17T02:01:30.626Z,4.40
2019-02-17T02:03:56.818Z,4.30
2019-02-17T02:06:23.016Z,4.40
2019-02-17T02:08:49.196Z,4.40
2019-02-17T02:11:15.396Z,4.30
2019-02-17T02:13:41.589Z,4.30
2019-02-17T02:16:07.849Z,4.40
2019-02-17T02:18:34.048Z,4.30
2019-02-17T02:21:00.212Z,4.30
2019-02-17T02:23:35.515Z,4.30
2019-02-17T02:26:04.239Z,4.20
2019-02-17T02:28:30.490Z,4.20
2019-02-17T02:30:56.707Z,4.20
2019-02-17T02:33:22.883Z,4.10
2019-02-17T02:36:04.273Z,4.10
2019-02-17T02:38:33.084Z,4.10
2019-02-17T02:40:59.315Z,4.00
2019-02-17T02:43:25.503Z,4.00
2019-02-17T02:45:51.727Z,4.00
2019-02-17T02:48:18.044Z,4.00
2019-02-17T02:50:44.235Z,4.00
2019-02-17T02:53:10.455Z,3.90
2019-02-17T02:58:32.702Z,4.00
2019-02-17T03:00:59.005Z,3.90
2019-02-17T03:03:40.488Z,3.90
2019-02-17T03:06:14.862Z,3.80
2019-02-17T03:08:41.043Z,3.80
2019-02-17T03:11:07.218Z,3.80
2019-02-17T03:13:33.418Z,3.80
2019-02-17T03:15:59.668Z,3.80
2019-02-17T03:18:25.914Z,3.70
2019-02-17T03:20:52.123Z,3.80
2019-02-17T03:23:18.311Z,3.80
2019-02-17T03:25:56.562Z,3.80
2019-02-17T03:28:22.751Z,3.80
2019-02-17T03:31:01.122Z,3.80
2019-02-17T03:33:27.308Z,3.70
2019-02-17T03:35:53.648Z,3.70
2019-02-17T03:38:35.095Z,3.70
2019-02-17T03:41:04.150Z,3.60
2019-02-17T03:43:30.430Z,3.60
2019-02-17T03:45:56.634Z,3.60
2019-02-17T03:48:22.987Z,3.60
2019-02-17T03:50:49.211Z,3.70
2019-02-17T03:53:15.418Z,3.60
2019-02-17T03:55:41.657Z,3.60
2019-02-17T03:58:07.901Z,3.60
2019-02-17T04:00:36.848Z,3.60
2019-02-17T04:03:03.075Z,3.50
2019-02-17T04:05:29.366Z,3.50
2019-02-17T04:07:58.387Z,3.50
2019-02-17T04:10:24.560Z,3.50
2019-02-17T04:12:50.845Z,3.40
2019-02-17T04:15:17.023Z,3.40
2019-02-17T04:17:43.200Z,3.40
2019-02-17T04:20:12.304Z,3.40
2019-02-17T04:22:38.499Z,3.30
2019-02-17T04:25:04.966Z,3.30
2019-02-17T04:27:34.023Z,3.30
2019-02-17T04:30:00.483Z,3.30
2019-02-17T04:32:45.176Z,3.20
2019-02-17T04:35:11.338Z,3.20
2019-02-17T04:37:37.528Z,3.10
2019-02-17T04:40:06.413Z,3.10
2019-02-17T04:42:32.790Z,3.10
2019-02-17T04:44:58.972Z,3.10
2019-02-17T04:47:25.150Z,3.00
2019-02-17T04:49:51.360Z,3.00
2019-02-17T04:52:17.614Z,3.00
2019-02-17T04:54:52.872Z,2.90
2019-02-17T04:57:19.165Z,2.90
2019-02-17T04:59:45.533Z,2.90
2019-02-17T05:02:11.698Z,2.90
2019-02-17T05:04:56.471Z,2.80
2019-02-17T05:07:22.621Z,2.80
2019-02-17T05:09:48.835Z,2.80
2019-02-17T05:12:15.139Z,2.80
2019-02-17T05:14:44.042Z,2.70
2019-02-17T05:17:10.191Z,2.70
2019-02-17T05:19:49.541Z,2.70
2019-02-17T05:22:15.709Z,2.60
2019-02-17T05:24:41.896Z,2.60
2019-02-17T05:27:08.185Z,2.60
2019-02-17T05:29:34.375Z,2.60
2019-02-17T05:32:00.542Z,2.60
2019-02-17T05:34:26.735Z,2.50
2019-02-17T05:36:52.983Z,2.50
2019-02-17T05:39:19.191Z,2.50
2019-02-17T05:41:45.398Z,2.50
2019-02-17T05:44:11.581Z,2.40
2019-02-17T05:46:37.783Z,2.40
2019-02-17T05:49:04.069Z,2.40
2019-02-17T05:51:30.244Z,2.40
2019-02-17T05:53:56.440Z,2.40
2019-02-17T05:56:34.813Z,2.40
2019-02-17T05:59:01.145Z,2.40
2019-02-17T06:01:27.433Z,2.30
2019-02-17T06:03:53.632Z,2.30
2019-02-17T06:06:29.246Z,2.30
2019-02-17T06:08:55.432Z,2.30
2019-02-17T06:11:21.596Z,2.30
2019-02-17T06:13:47.767Z,2.30
2019-02-17T06:16:23.023Z,2.20
2019-02-17T06:19:01.351Z,2.20
2019-02-17T06:21:27.531Z,2.20
2019-02-17T06:23:53.753Z,2.10
2019-02-17T06:26:19.950Z,2.10
2019-02-17T06:28:46.120Z,2.10
2019-02-17T06:31:14.682Z,2.10
2019-02-17T06:33:43.383Z,2.10
2019-02-17T06:36:09.984Z,2.10
2019-02-17T06:38:36.202Z,2.00
2019-02-17T06:41:02.437Z,2.00
2019-02-17T06:43:28.896Z,2.00
2019-02-17T06:45:57.950Z,2.10
2019-02-17T06:48:24.248Z,2.00
2019-02-17T06:50:53.388Z,2.00
2019-02-17T06:53:19.613Z,2.00
2019-02-17T06:56:00.152Z,2.00
2019-02-17T06:58:29.126Z,2.00
2019-02-17T07:01:04.498Z,2.00
2019-02-17T07:03:30.779Z,1.90
2019-02-17T07:06:05.311Z,2.00
2019-02-17T07:08:31.648Z,2.00
2019-02-17T07:10:57.898Z,2.00
2019-02-17T07:13:26.728Z,2.00
2019-02-17T07:15:52.930Z,2.00
2019-02-17T07:18:19.107Z,2.00
2019-02-17T07:20:45.506Z,2.00
2019-02-17T07:23:11.791Z,2.00
2019-02-17T07:25:38.070Z,2.00
2019-02-17T07:28:04.270Z,2.00
2019-02-17T07:30:30.451Z,2.10
2019-02-17T07:32:56.982Z,2.10
2019-02-17T07:35:23.192Z,2.10
2019-02-17T07:37:52.321Z,2.20
2019-02-17T07:40:18.496Z,2.20
2019-02-17T07:42:44.688Z,2.20
2019-02-17T07:45:10.872Z,2.30
2019-02-17T07:47:37.187Z,2.30
2019-02-17T07:50:08.077Z,2.30
2019-02-17T07:52:34.402Z,2.30
2019-02-17T07:55:00.650Z,2.40
2019-02-17T07:57:26.825Z,2.40
2019-02-17T07:59:53.053Z,2.50
2019-02-17T08:02:19.272Z,2.50
2019-02-17T08:04:48.582Z,2.50
2019-02-17T08:07:14.747Z,2.50
2019-02-17T08:09:41.043Z,2.60
2019-02-17T08:12:07.270Z,2.60
2019-02-17T08:14:33.539Z,2.60
2019-02-17T08:16:59.747Z,2.70
2019-02-17T08:19:26.065Z,2.70
2019-02-17T08:21:52.245Z,2.80
2019-02-17T08:24:18.417Z,2.80
2019-02-17T08:26:44.682Z,2.90
2019-02-17T08:29:10.860Z,3.00
2019-02-17T08:31:37.059Z,3.00
2019-02-17T08:34:03.306Z,3.20
2019-02-17T08:36:29.630Z,3.30
2019-02-17T08:38:58.493Z,3.30
2019-02-17T08:41:24.652Z,3.40
2019-02-17T08:44:09.398Z,3.40
2019-02-17T08:46:35.704Z,3.50
2019-02-17T08:49:04.838Z,3.60
2019-02-17T08:51:31.009Z,3.70
2019-02-17T08:54:00.034Z,3.90
2019-02-17T08:56:26.200Z,4.00
2019-02-17T08:58:52.421Z,4.10
2019-02-17T09:01:18.732Z,4.10
2019-02-17T09:03:48.039Z,4.20
2019-02-17T09:06:32.752Z,4.30
2019-02-17T09:08:59.041Z,4.40
2019-02-17T09:11:43.952Z,4.40
2019-02-17T09:14:10.145Z,4.50
2019-02-17T09:16:39.350Z,4.60
2019-02-17T09:19:05.691Z,4.70
2019-02-17T09:21:34.782Z,4.80
2019-02-17T09:24:01.055Z,4.90
2019-02-17T09:26:29.556Z,5.00
2019-02-17T09:28:55.796Z,5.10
2019-02-17T09:31:31.299Z,5.20
2019-02-17T09:33:57.542Z,5.30
2019-02-17T09:36:23.718Z,5.40
2019-02-17T09:38:49.894Z,5.50
2019-02-17T09:41:16.075Z,5.60
2019-02-17T09:43:45.756Z,5.70
2019-02-17T09:46:12.167Z,5.80
2019-02-17T09:48:38.402Z,6.00
2019-02-17T09:51:04.620Z,6.00
2019-02-17T09:53:30.816Z,6.10
2019-02-17T09:55:58.788Z,6.30
2019-02-17T09:58:25.131Z,6.40
2019-02-17T10:00:51.473Z,6.50
2019-02-17T10:03:26.949Z,6.60
2019-02-17T10:05:53.187Z,6.70
2019-02-17T10:08:19.460Z,6.80
2019-02-17T10:10:45.670Z,7.00
2019-02-17T10:13:11.860Z,7.20
2019-02-17T10:15:38.047Z,7.40
2019-02-17T10:18:04.207Z,7.50
2019-02-17T10:20:30.390Z,7.60
2019-02-17T10:22:56.572Z,7.70
2019-02-17T10:25:22.798Z,7.90
2019-02-17T10:27:49.098Z,8.00
2019-02-17T10:30:16.594Z,8.10
2019-02-17T10:32:42.852Z,8.20
2019-02-17T10:35:09.262Z,8.30
2019-02-17T10:37:53.794Z,8.30
2019-02-17T10:40:19.976Z,8.40
2019-02-17T10:43:04.522Z,8.60
2019-02-17T10:45:30.809Z,8.70
2019-02-17T10:47:57.090Z,8.80
2019-02-17T10:50:23.278Z,8.90
2019-02-17T10:52:49.490Z,9.10
2019-02-17T10:55:15.716Z,9.20
2019-02-17T10:57:44.825Z,9.30
2019-02-17T11:00:29.680Z,9.40
2019-02-17T11:03:05.018Z,9.50
2019-02-17T11:05:34.015Z,9.60
2019-02-17T11:08:00.184Z,9.70
2019-02-17T11:10:26.453Z,9.80
2019-02-17T11:12:52.657Z,9.90
2019-02-17T11:15:19.309Z,10.00
2019-02-17T11:18:03.950Z,10.10
2019-02-17T11:20:35.884Z,10.20
2019-02-17T11:23:02.060Z,10.30
2019-02-17T11:25:28.229Z,10.40
2019-02-17T11:27:54.485Z,10.50
2019-02-17T11:30:21.045Z,10.50
2019-02-17T11:32:57.731Z,10.60
2019-02-17T11:35:17.860Z,10.70
2019-02-17T11:37:46.682Z,10.80
2019-02-17T11:40:13.130Z,10.90
2019-02-17T11:42:57.718Z,11.00
2019-02-17T11:45:23.882Z,11.00
2019-02-17T11:47:50.099Z,11.10
2019-02-17T11:50:18.797Z,11.10
2019-02-17T11:52:45.020Z,11.20
2019-02-17T11:55:13.021Z,11.30
2019-02-17T11:57:39.335Z,11.30
2019-02-17T12:00:20.467Z,11.50
2019-02-17T12:03:07.519Z,11.60
2019-02-17T12:05:27.341Z,11.80
2019-02-17T12:07:53.512Z,11.80
2019-02-17T12:10:19.679Z,11.80
2019-02-17T12:12:45.855Z,11.90
2019-02-17T12:15:12.692Z,11.90
2019-02-17T12:17:41.614Z,12.10
2019-02-17T12:20:33.497Z,12.20
2019-02-17T12:23:01.575Z,12.30
2019-02-17T12:25:48.333Z,12.40
2019-02-17T12:28:16.490Z,12.50
2019-02-17T12:30:47.180Z,12.60
2019-02-17T12:33:19.178Z,12.70
2019-02-17T12:35:41.491Z,12.80
2019-02-17T12:38:07.795Z,12.90
2019-02-17T12:40:34.085Z,13.00
2019-02-17T12:43:03.175Z,13.10
2019-02-17T12:45:31.901Z,13.30
2019-02-17T12:47:58.571Z,13.40
2019-02-17T12:50:27.558Z,13.50
2019-02-17T12:52:53.726Z,13.50
2019-02-17T12:55:19.905Z,13.60
2019-02-17T12:57:46.307Z,13.70
2019-02-17T13:00:16.162Z,13.70
2019-02-17T13:02:42.429Z,13.80
2019-02-17T13:05:09.210Z,13.90
2019-02-17T13:07:44.564Z,13.90
2019-02-17T13:10:13.385Z,14.00
2019-02-17T13:12:39.579Z,14.10
2019-02-17T13:15:10.604Z,14.10
2019-02-17T13:17:36.850Z,14.20
2019-02-17T13:20:06.688Z,14.20
2019-02-17T13:22:35.661Z,14.40
2019-02-17T13:25:01.918Z,14.40
2019-02-17T13:27:30.968Z,14.40
2019-02-17T13:29:57.169Z,14.50
2019-02-17T13:32:23.334Z,14.50
2019-02-17T13:34:49.515Z,14.60
2019-02-17T13:37:18.363Z,14.70
2019-02-17T13:39:44.561Z,14.70
2019-02-17T13:42:10.836Z,14.80
2019-02-17T13:44:37.067Z,14.90
2019-02-17T13:47:03.227Z,15.00
2019-02-17T13:49:29.443Z,15.20
2019-02-17T13:51:55.621Z,15.50
2019-02-17T13:54:21.797Z,16.00
2019-02-17T13:56:48.210Z,16.50
2019-02-17T13:59:16.994Z,17.20
2019-02-17T14:01:45.688Z,18.00
2019-02-17T14:04:11.923Z,18.60
2019-02-17T14:06:38.343Z,18.90
2019-02-17T14:09:07.690Z,19.00
2019-02-17T14:11:36.761Z,19.10
2019-02-17T14:14:05.719Z,19.10
2019-02-17T14:16:31.934Z,18.70
2019-02-17T14:19:10.394Z,18.60
2019-02-17T14:21:36.804Z,18.60
2019-02-17T14:24:03.033Z,18.70
2019-02-17T14:26:29.347Z,18.70
2019-02-17T14:28:55.542Z,18.70
2019-02-17T14:31:40.261Z,18.90
2019-02-17T14:34:06.601Z,19.00
2019-02-17T14:36:32.778Z,19.00
2019-02-17T14:39:00.372Z,18.90
2019-02-17T14:41:29.413Z,18.90
2019-02-17T14:43:58.631Z,18.80
2019-02-17T14:46:27.386Z,18.70
2019-02-17T14:48:53.781Z,18.40
2019-02-17T14:51:20.076Z,18.00
2019-02-17T14:56:12.813Z,17.10
2019-02-17T14:58:39.067Z,16.80
2019-02-17T15:01:05.356Z,16.50
2019-02-17T15:03:31.592Z,16.40
2019-02-17T15:05:57.812Z,16.30
2019-02-17T15:08:39.213Z,16.20
2019-02-17T15:11:05.413Z,16.00
2019-02-17T15:13:32.689Z,15.80
2019-02-17T15:15:58.936Z,15.70
2019-02-17T15:18:25.349Z,15.60
2019-02-17T15:20:51.659Z,15.40
2019-02-17T15:23:36.103Z,15.40
2019-02-17T15:26:02.435Z,15.30
2019-02-17T15:28:28.659Z,15.20
2019-02-17T15:30:55.023Z,15.20
2019-02-17T15:33:21.257Z,15.10
2019-02-17T15:35:47.581Z,15.10
2019-02-17T15:38:13.742Z,15.00
2019-02-17T15:40:39.929Z,14.90
2019-02-17T15:43:06.101Z,14.80
2019-02-17T15:45:32.300Z,14.70
2019-02-17T15:47:58.461Z,14.60
2019-02-17T15:50:24.662Z,14.50
2019-02-17T15:52:50.839Z,14.40
2019-02-17T15:55:17.148Z,14.40
2019-02-17T15:57:43.461Z,14.30
2019-02-17T16:00:31.391Z,14.30
2019-02-17T16:02:57.630Z,14.20
2019-02-17T16:05:23.797Z,14.00
2019-02-17T16:07:50.034Z,13.90
2019-02-17T16:10:16.716Z,13.80
2019-02-17T16:12:58.159Z,13.70
2019-02-17T16:15:27.065Z,13.70
2019-02-17T16:18:11.830Z,13.60
2019-02-17T16:20:38.008Z,13.50
2019-02-17T16:23:04.222Z,13.40
2019-02-17T16:25:36.010Z,13.20
2019-02-17T16:28:02.268Z,13.10
2019-02-17T16:30:28.517Z,12.90
2019-02-17T16:32:54.792Z,12.90
2019-02-17T16:35:39.920Z,12.80
2019-02-17T16:38:06.109Z,12.80
2019-02-17T16:40:47.573Z,12.70
2019-02-17T16:43:13.883Z,12.50
2019-02-17T16:45:40.066Z,12.40
2019-02-17T16:48:06.245Z,12.40
2019-02-17T16:50:32.573Z,12.30
2019-02-17T16:52:58.781Z,12.30
2019-02-17T16:55:25.278Z,12.10
2019-02-17T16:57:51.575Z,12.00
2019-02-17T17:00:22.747Z,11.90
2019-02-17T17:02:50.487Z,11.90
2019-02-17T17:05:16.841Z,11.90
2019-02-17T17:07:43.336Z,11.80
2019-02-17T17:10:09.922Z,11.80
2019-02-17T17:12:38.989Z,11.70
2019-02-17T17:15:08.533Z,11.50
2019-02-17T17:17:37.280Z,11.40
2019-02-17T17:20:14.688Z,11.30
2019-02-17T17:22:41.042Z,11.20
2019-02-17T17:25:08.862Z,11.10
2019-02-17T17:27:35.091Z,11.10
2019-02-17T17:30:01.391Z,11.10
2019-02-17T17:32:30.401Z,11.10
2019-02-17T17:35:14.903Z,11.00
2019-02-17T17:37:41.154Z,11.00
2019-02-17T17:40:16.198Z,10.90
2019-02-17T17:42:42.483Z,10.90
2019-02-17T17:45:11.917Z,10.80
2019-02-17T17:47:47.198Z,10.80
2019-02-17T17:50:14.451Z,10.70
2019-02-17T17:52:40.834Z,10.70
2019-02-17T17:55:08.678Z,10.60
2019-02-17T17:57:38.837Z,10.50
2019-02-17T18:00:15.482Z,10.50
2019-02-17T18:03:00.064Z,10.40
2019-02-17T18:05:26.445Z,10.30
2019-02-17T18:07:58.169Z,10.20
2019-02-17T18:10:24.494Z,10.20
2019-02-17T18:12:50.768Z,10.20
2019-02-17T18:15:18.240Z,10.20
2019-02-17T18:18:03.345Z,10.10
2019-02-17T18:20:32.342Z,10.00
2019-02-17T18:22:58.533Z,10.00
2019-02-17T18:25:24.734Z,9.90
2019-02-17T18:27:50.912Z,9.80
2019-02-17T18:30:20.334Z,9.70
2019-02-17T18:32:46.632Z,9.70
2019-02-17T18:35:19.591Z,9.60
2019-02-17T18:37:43.595Z,9.50
2019-02-17T18:40:28.121Z,9.50
2019-02-17T18:42:54.671Z,9.40
2019-02-17T18:45:36.302Z,9.30
2019-02-17T18:48:02.628Z,9.20
2019-02-17T18:50:28.866Z,9.20
2019-02-17T18:52:55.070Z,9.20
2019-02-17T18:55:27.512Z,9.20
2019-02-17T18:57:53.749Z,9.10
2019-02-17T19:00:24.716Z,9.00
2019-02-17T19:02:50.971Z,9.00
2019-02-17T19:05:17.181Z,8.90
2019-02-17T19:07:43.464Z,8.90
2019-02-17T19:10:13.496Z,8.80
2019-02-17T19:12:40.012Z,8.80
2019-02-17T19:15:24.733Z,8.70
2019-02-17T19:17:50.941Z,8.70
2019-02-17T19:20:35.513Z,8.60
2019-02-17T19:23:19.823Z,8.60
2019-02-17T19:25:46.025Z,8.50
2019-02-17T19:28:12.315Z,8.50
2019-02-17T19:30:38.655Z,8.50
2019-02-17T19:33:04.990Z,8.50
2019-02-17T19:35:42.281Z,8.40
2019-02-17T19:38:08.769Z,8.40
2019-02-17T19:40:35.056Z,8.40
2019-02-17T19:43:03.481Z,8.30
2019-02-17T19:45:48.584Z,8.30
2019-02-17T19:48:14.786Z,8.20
2019-02-17T19:50:40.974Z,8.20
2019-02-17T19:53:07.194Z,8.10
2019-02-17T19:55:33.375Z,8.10
2019-02-17T19:57:59.557Z,8.00
2019-02-17T20:00:28.291Z,8.00
2019-02-17T20:03:08.487Z,7.90
2019-02-17T20:06:01.031Z,7.90
2019-02-17T20:08:30.092Z,7.90
2019-02-17T20:11:14.805Z,7.90
2019-02-17T20:13:41.035Z,7.80
2019-02-17T20:16:26.133Z,7.70
2019-02-17T20:19:11.110Z,7.60
2019-02-17T20:21:37.369Z,7.60
2019-02-17T20:24:08.076Z,7.50
2019-02-17T20:26:34.637Z,7.50
2019-02-17T20:29:00.925Z,7.50
2019-02-17T20:31:27.187Z,7.40
2019-02-17T20:33:53.376Z,7.50
2019-02-17T20:36:19.572Z,7.40
2019-02-17T20:38:45.988Z,7.30
2019-02-17T20:41:12.297Z,7.30
2019-02-17T20:43:38.485Z,7.30
2019-02-17T20:46:04.752Z,7.30
2019-02-17T20:48:31.011Z,7.30
2019-02-17T20:50:57.216Z,7.30
2019-02-17T20:53:23.405Z,7.30
2019-02-17T20:55:49.659Z,7.20
2019-02-17T20:58:15.872Z,7.10
2019-02-17T21:00:42.082Z,7.10
2019-02-17T21:03:11.222Z,7.10
2019-02-17T21:05:37.459Z,7.00
2019-02-17T21:08:15.955Z,7.00
2019-02-17T21:10:42.402Z,7.00
2019-02-17T21:13:08.679Z,7.00
2019-02-17T21:15:34.878Z,7.00
2019-02-17T21:18:03.907Z,7.00
2019-02-17T21:20:30.625Z,6.90
2019-02-17T21:23:15.584Z,6.90
2019-02-17T21:25:41.774Z,6.90
2019-02-17T21:28:07.998Z,6.80
2019-02-17T21:30:34.205Z,6.80
2019-02-17T21:33:00.408Z,6.80
2019-02-17T21:35:29.118Z,6.70
2019-02-17T21:37:55.352Z,6.70
2019-02-17T21:40:21.747Z,6.70
2019-02-17T21:42:47.971Z,6.60
2019-02-17T21:45:15.122Z,6.60
2019-02-17T21:47:41.363Z,6.60
2019-02-17T21:50:09.647Z,6.60
2019-02-17T21:52:35.981Z,6.50
2019-02-17T21:55:04.230Z,6.50
2019-02-17T21:57:32.985Z,6.40
2019-02-17T22:00:03.807Z,6.40
2019-02-17T22:02:30.139Z,6.40
2019-02-17T22:04:56.315Z,6.30
2019-02-17T22:07:22.486Z,6.30
2019-02-17T22:09:48.709Z,6.20
2019-02-17T22:12:15.045Z,6.20
2019-02-17T22:14:41.222Z,6.20
2019-02-17T22:17:07.434Z,6.20
2019-02-17T22:19:33.627Z,6.20
2019-02-17T22:21:59.800Z,6.10
2019-02-17T22:24:26.096Z,6.10
2019-02-17T22:26:52.259Z,6.10
2019-02-17T22:29:21.080Z,6.10
2019-02-17T22:31:47.333Z,6.10
2019-02-17T22:34:13.610Z,6.10
2019-02-17T22:36:52.168Z,6.00
2019-02-17T22:39:18.358Z,6.00
2019-02-17T22:41:44.534Z,6.00
2019-02-17T22:44:13.372Z,5.90
2019-02-17T22:46:39.562Z,5.90
2019-02-17T22:49:05.883Z,5.90
2019-02-17T22:51:32.066Z,5.80
2019-02-17T22:53:58.254Z,5.90
2019-02-17T22:56:24.442Z,5.90
2019-02-17T22:58:50.751Z,5.80
2019-02-17T23:01:20.563Z,5.70
2019-02-17T23:03:46.759Z,5.70
2019-02-17T23:06:12.990Z,5.70
2019-02-17T23:08:39.188Z,5.60
2019-02-17T23:11:05.400Z,5.60
2019-02-17T23:13:31.621Z,5.60
2019-02-17T23:15:57.806Z,5.60
2019-02-17T23:18:24.094Z,5.50
2019-02-17T23:20:50.289Z,5.50
2019-02-17T23:23:16.677Z,5.50
2019-02-17T23:25:42.982Z,5.50
2019-02-17T23:28:12.086Z,5.50
2019-02-17T23:30:38.452Z,5.50
2019-02-17T23:33:07.257Z,5.50
2019-02-17T23:35:33.455Z,5.50
2019-02-17T23:37:59.614Z,5.50
2019-02-17T23:40:25.890Z,5.50
2019-02-17T23:42:52.060Z,5.50
2019-02-17T23:45:18.292Z,5.40
2019-02-17T23:47:44.479Z,5.40
2019-02-17T23:50:12.247Z,5.40
2019-02-17T23:52:38.542Z,5.30
2019-02-17T23:55:05.746Z,5.30
2019-02-17T23:57:34.742Z,5.30
